Time;durP1;ratioP1;P1;durP2;ratioP2;P2;SDS_P1;SDS_P2;PMS_P1;PMS_P2;Temp;Humidity;BMP_temperature;BMP_pressure;BME280_temperature;BME280_humidity;BME280_pressure;Samples;Min_cycle;Max_cycle;Signal;HPM_P1;HPM_P2
2021/07/24 00:43:19;;;;;;;;;13.50;12.25;;;;;;;;4665803;30;45998;-93
2021/07/24 00:45:46;;;;;;;;;15.00;12.00;;;;;;;;4730559;24;48080;-91
2021/07/24 00:48:15;;;;;;;;;21.50;14.00;;;;;;;;4811179;24;45680;-92
2021/07/24 00:50:44;;;;;;;;;15.75;13.00;;;;;;;;4753358;24;45633;-91
2021/07/24 00:53:12;;;;;;;;;18.00;15.25;;;;;;;;4659689;30;45373;-92
2021/07/24 00:55:37;;;;;;;;;19.25;15.25;;;;;;;;4679113;30;47278;-90
2021/07/24 00:58:21;;;;;;;;;14.00;12.00;;;;;;;;4678610;30;45259;-92
2021/07/24 01:00:46;;;;;;;;;15.00;14.50;;;;;;;;4679295;30;45470;-91
2021/07/24 01:03:12;;;;;;;;;16.33;15.00;;;;;;;;4663599;30;45535;-94
2021/07/24 01:05:37;;;;;;;;;12.67;11.67;;;;;;;;4707554;24;48456;-92
2021/07/24 01:08:03;;;;;;;;;12.75;12.00;;;;;;;;4700229;30;45960;-91
2021/07/24 01:10:28;;;;;;;;;15.25;11.25;;;;;;;;4714398;30;45597;-92
2021/07/24 01:12:53;;;;;;;;;16.33;12.33;;;;;;;;4691855;30;45383;-92
2021/07/24 01:15:19;;;;;;;;;16.00;13.00;;;;;;;;4690929;30;48433;-92
2021/07/24 01:17:44;;;;;;;;;13.75;13.00;;;;;;;;4698992;30;45709;-93
2021/07/24 01:20:10;;;;;;;;;14.75;12.50;;;;;;;;4695209;30;45468;-93
2021/07/24 01:22:35;;;;;;;;;14.00;11.00;;;;;;;;4712092;29;45578;-91
2021/07/24 01:25:00;;;;;;;;;14.00;13.00;;;;;;;;4699559;30;48208;-92
2021/07/24 01:30:01;;;;;;;;;18.00;15.25;;;;;;;;4929554;24;45535;-91
2021/07/24 01:32:26;;;;;;;;;14.50;14.00;;;;;;;;4684930;30;45727;-93
2021/07/24 02:26:32;;;;;;;;;8.50;8.25;;;;;;;;5524477;24;45968;-93
2021/07/24 02:28:57;;;;;;;;;10.25;7.00;;;;;;;;4690194;30;45515;-92
2021/07/24 02:31:23;;;;;;;;;8.67;7.00;;;;;;;;4674953;30;47205;-92
2021/07/24 02:33:48;;;;;;;;;5.00;5.00;;;;;;;;4687248;30;45492;-94
2021/07/24 02:36:13;;;;;;;;;7.25;6.00;;;;;;;;4791583;24;46082;-93
2021/07/24 02:38:38;;;;;;;;;6.50;6.25;;;;;;;;4699283;30;45475;-92
2021/07/24 02:41:04;;;;;;;;;4.75;4.75;;;;;;;;4685326;30;45544;-93
2021/07/24 02:43:30;;;;;;;;;7.75;6.00;;;;;;;;4968906;24;45656;-93
2021/07/24 02:51:05;;;;;;;;;5.75;5.00;;;;;;;;5053638;24;46108;-93
2021/07/24 02:53:30;;;;;;;;;5.67;4.67;;;;;;;;4671077;30;45557;-92
2021/07/24 02:55:55;;;;;;;;;7.00;6.00;;;;;;;;4684348;30;48258;-92
2021/07/24 02:58:21;;;;;;;;;5.67;5.67;;;;;;;;4685306;30;45234;-93
2021/07/24 03:00:46;;;;;;;;;6.50;4.75;;;;;;;;4685858;30;45408;-92
2021/07/24 03:03:11;;;;;;;;;6.00;5.25;;;;;;;;4682548;30;45639;-93
2021/07/24 03:08:11;;;;;;;;;5.00;4.75;;;;;;;;4944672;24;45397;-93
2021/07/24 03:10:37;;;;;;;;;4.25;4.25;;;;;;;;4682512;30;45309;-93
2021/07/24 03:13:02;;;;;;;;;6.75;4.75;;;;;;;;4681021;30;45337;-92
2021/07/24 03:15:28;;;;;;;;;8.25;6.00;;;;;;;;4785036;24;48247;-92
2021/07/24 03:17:53;;;;;;;;;6.00;5.00;;;;;;;;4697264;30;45520;-93
2021/07/24 03:20:19;;;;;;;;;6.00;4.67;;;;;;;;4787933;24;46013;-93
2021/07/24 03:22:44;;;;;;;;;6.75;4.75;;;;;;;;4695122;30;45526;-92
2021/07/24 03:25:09;;;;;;;;;4.75;4.25;;;;;;;;4721645;24;46158;-91
2021/07/24 03:27:34;;;;;;;;;6.00;4.50;;;;;;;;4682904;30;45438;-92
2021/07/24 03:32:35;;;;;;;;;6.00;5.50;;;;;;;;4963504;24;45030;-91
2021/07/24 03:35:00;;;;;;;;;6.00;4.25;;;;;;;;4664217;30;48269;-93
2021/07/24 03:37:25;;;;;;;;;4.00;4.00;;;;;;;;4672803;30;46083;-93
2021/07/24 03:39:50;;;;;;;;;7.25;6.00;;;;;;;;4681242;30;45385;-93
2021/07/24 03:42:16;;;;;;;;;6.00;4.50;;;;;;;;4680878;30;45606;-92
2021/07/24 03:44:41;;;;;;;;;7.75;4.00;;;;;;;;4682926;30;47972;-92
2021/07/24 03:47:06;;;;;;;;;7.00;5.00;;;;;;;;5431791;24;47250;-93
2021/07/24 03:49:32;;;;;;;;;4.50;4.25;;;;;;;;4679512;30;45511;-95
2021/07/24 03:51:57;;;;;;;;;6.75;5.50;;;;;;;;4661664;30;45740;-95
2021/07/24 03:54:22;;;;;;;;;6.00;6.00;;;;;;;;4954062;24;47047;-91
2021/07/24 03:56:47;;;;;;;;;4.00;4.00;;;;;;;;4697384;30;45884;-95
2021/07/24 03:59:13;;;;;;;;;7.00;4.75;;;;;;;;4694910;30;45474;-93
2021/07/24 04:01:40;;;;;;;;;7.00;5.25;;;;;;;;4682643;30;45417;-94
2021/07/24 04:06:39;;;;;;;;;7.25;6.00;;;;;;;;4669083;30;45641;-93
2021/07/24 04:40:06;;;;;;;;;5.00;5.00;;;;;;;;5027125;24;45765;-92
2021/07/24 04:42:31;;;;;;;;;8.00;5.75;;;;;;;;4693664;30;45594;-94
2021/07/24 04:44:56;;;;;;;;;4.25;4.25;;;;;;;;4674666;30;47412;-92
2021/07/24 04:47:22;;;;;;;;;5.00;5.00;;;;;;;;4678256;30;45625;-92
2021/07/24 04:49:48;;;;;;;;;4.75;4.75;;;;;;;;4679812;30;45356;-92
2021/07/24 04:52:13;;;;;;;;;5.00;5.00;;;;;;;;4696747;30;45523;-91
2021/07/24 04:54:40;;;;;;;;;5.75;4.00;;;;;;;;4693003;30;46370;-93
2021/07/24 04:57:12;;;;;;;;;7.50;6.00;;;;;;;;4699291;30;45599;-92
2021/07/24 04:59:46;;;;;;;;;8.00;4.50;;;;;;;;4687957;30;45464;-95
2021/07/24 05:02:11;;;;;;;;;6.25;6.00;;;;;;;;4686628;30;45465;-93
2021/07/24 05:04:37;;;;;;;;;6.00;5.00;;;;;;;;4682398;30;47034;-93
2021/07/24 05:07:02;;;;;;;;;8.75;6.00;;;;;;;;4679259;30;45572;-92
2021/07/24 05:09:27;;;;;;;;;5.75;5.25;;;;;;;;4694252;30;45448;-92
2021/07/24 05:11:53;;;;;;;;;7.50;6.00;;;;;;;;4687118;30;45647;-93
2021/07/24 05:14:18;;;;;;;;;10.50;6.75;;;;;;;;4677633;30;47225;-92
2021/07/24 05:16:43;;;;;;;;;9.00;7.00;;;;;;;;4689921;30;44985;-92
2021/07/24 05:19:08;;;;;;;;;8.00;6.00;;;;;;;;4689853;30;45516;-94
2021/07/24 05:21:34;;;;;;;;;6.25;6.00;;;;;;;;4677682;30;45266;-92
2021/07/24 05:23:59;;;;;;;;;7.75;5.75;;;;;;;;4683611;30;45603;-94
2021/07/24 05:26:25;;;;;;;;;12.00;5.00;;;;;;;;4679438;30;48993;-93
2021/07/24 05:28:50;;;;;;;;;6.00;6.00;;;;;;;;4693340;30;45604;-93
2021/07/24 05:31:19;;;;;;;;;7.00;5.75;;;;;;;;4678059;30;45783;-91
2021/07/24 05:33:44;;;;;;;;;9.75;8.25;;;;;;;;4673069;30;47077;-93
2021/07/24 05:36:10;;;;;;;;;7.00;7.00;;;;;;;;4694808;30;45643;-93
2021/07/24 05:38:36;;;;;;;;;6.75;5.75;;;;;;;;4688080;30;45529;-92
2021/07/24 05:41:02;;;;;;;;;7.75;6.50;;;;;;;;4692067;30;45565;-92
2021/07/24 06:28:44;;;;;;;;;5.50;5.50;;;;;;;;4795732;24;46012;-92
2021/07/24 07:03:50;;;;;;;;;;;;;;;;;;;;;
2021/07/24 07:06:16;;;;;;;;;4.75;3.50;;;;;;;;4647813;30;70944;-92
2021/07/24 07:14:09;;;;;;;;;6.00;4.50;;;;;;;;4682815;30;45463;-92
2021/07/24 07:19:51;;;;;;;;;9.25;3.00;;;;;;;;5631335;24;46090;-93
2021/07/24 07:25:26;;;;;;;;;5.50;4.50;;;;;;;;4832552;24;46384;-93
2021/07/24 07:47:13;;;;;;;;;3.75;3.75;;;;;;;;4600179;30;45584;-91
2021/07/24 07:58:11;;;;;;;;;4.00;3.75;;;;;;;;5572912;24;46929;-92
2021/07/24 08:00:36;;;;;;;;;7.00;4.25;;;;;;;;4704448;30;45665;-91
2021/07/24 08:03:02;;;;;;;;;3.50;3.50;;;;;;;;4732462;30;46709;-91
2021/07/24 08:08:16;;;;;;;;;;;;;;;;;;;;;
2021/07/24 08:10:50;;;;;;;;;4.50;4.50;;;;;;;;4699676;29;70095;-92
2021/07/24 08:13:20;;;;;;;;;6.00;4.75;;;;;;;;4682782;30;47223;-91
2021/07/24 08:16:15;;;;;;;;;;;;;;;;;;;;;
2021/07/24 08:24:55;;;;;;;;;5.00;4.00;;;;;;;;4706692;30;46108;-91
2021/07/24 08:27:25;;;;;;;;;3.50;2.00;;;;;;;;4627744;30;45431;-91
2021/07/24 08:30:28;;;;;;;;;4.00;4.00;;;;;;;;4639761;30;48927;-91
2021/07/24 08:32:54;;;;;;;;;4.75;3.00;;;;;;;;4625049;30;45528;-92
2021/07/24 08:35:21;;;;;;;;;3.75;3.00;;;;;;;;4625690;30;47295;-93
2021/07/24 08:41:13;;;;;;;;;4.00;3.00;;;;;;;;4596630;30;45556;-91
2021/07/24 09:12:17;;;;;;;;;;;;;;;;;;;;;
2021/07/24 09:27:35;;;;;;;;;;;;;;;;;;;;;
2021/07/24 09:33:15;;;;;;;;;3.75;3.00;;;;;;;;4933671;24;45613;-86
2021/07/24 11:34:59;;;;;;;;;1.00;1.00;;;;;;;;4697628;24;46101;-91
2021/07/24 11:40:36;;;;;;;;;3.50;2.00;;;;;;;;4850402;24;45570;-91
2021/07/24 11:52:14;;;;;;;;;1.75;1.75;;;;;;;;5218071;24;45733;-93
2021/07/24 11:55:14;;;;;;;;;5.00;2.00;;;;;;;;4669820;30;45678;-91
2021/07/24 11:58:12;;;;;;;;;;;;;;;;;;;;;
2021/07/24 12:09:22;;;;;;;;;2.25;2.25;;;;;;;;4915799;24;47171;-92
2021/07/24 12:11:54;;;;;;;;;2.00;2.00;;;;;;;;4698377;30;45529;-91
2021/07/24 12:14:23;;;;;;;;;2.00;2.00;;;;;;;;4699459;30;45206;-91
2021/07/24 14:07:33;;;;;;;;;6.00;6.00;;;;;;;;4985673;24;47187;-93
2021/07/24 14:30:42;;;;;;;;;3.00;2.00;;;;;;;;4665897;30;45558;-93
2021/07/24 16:45:12;;;;;;;;;2.50;2.50;;;;;;;;5477141;24;45861;-93
2021/07/24 16:52:50;;;;;;;;;3.00;3.00;;;;;;;;5603835;24;45851;-82
2021/07/24 17:13:21;;;;;;;;;3.50;3.00;;;;;;;;4833502;24;45549;-81
2021/07/24 17:15:46;;;;;;;;;3.00;3.00;;;;;;;;4668475;30;47167;-81
2021/07/24 17:18:20;;;;;;;;;3.00;3.00;;;;;;;;4685663;30;45535;-82
2021/07/24 17:29:27;;;;;;;;;3.50;2.25;;;;;;;;5316620;24;46192;-93
2021/07/24 18:03:49;;;;;;;;;4.00;3.00;;;;;;;;5335222;24;45686;-84
2021/07/24 18:06:39;;;;;;;;;4.00;4.00;;;;;;;;4684794;30;45496;-84
2021/07/24 18:09:04;;;;;;;;;4.50;2.00;;;;;;;;4659717;30;47747;-85
2021/07/24 18:11:32;;;;;;;;;3.00;3.00;;;;;;;;4652710;30;45987;-85
2021/07/24 18:42:48;;;;;;;;;3.00;3.00;;;;;;;;4995103;24;46204;-85
2021/07/24 19:15:45;;;;;;;;;4.25;3.50;;;;;;;;4788332;24;46352;-81
2021/07/24 19:18:20;;;;;;;;;4.00;4.00;;;;;;;;4660805;30;45612;-81
2021/07/24 19:38:51;;;;;;;;;8.00;3.25;;;;;;;;5482142;24;45893;-81
2021/07/24 20:11:21;;;;;;;;;;;;;;;;;;;;;
2021/07/24 20:33:06;;;;;;;;;14.50;12.00;;;;;;;;4946172;24;45567;-84
2021/07/24 20:47:10;;;;;;;;;9.75;6.00;;;;;;;;4939007;24;1278025;-82
2021/07/24 21:07:50;;;;;;;;;7.00;6.00;;;;;;;;4688450;24;45794;-83
2021/07/24 23:06:02;;;;;;;;;2.75;2.75;;;;;;;;5665063;24;46300;-81
2021/07/24 23:20:39;;;;;;;;;2.00;2.00;;;;;;;;5614068;24;46897;-82
2021/07/24 23:29:10;;;;;;;;;18.75;15.75;;;;;;;;4690419;24;45565;-81
2021/07/24 23:42:51;;;;;;;;;6.75;5.75;;;;;;;;5048764;24;45871;-92
2021/07/24 23:45:16;;;;;;;;;7.00;6.00;;;;;;;;4685112;30;48140;-92
2021/07/24 23:47:42;;;;;;;;;6.00;5.00;;;;;;;;4704137;30;45470;-91
2021/07/24 23:50:09;;;;;;;;;4.00;4.00;;;;;;;;4685006;30;45352;-92
2021/07/24 23:52:34;;;;;;;;;2.00;2.00;;;;;;;;4702495;30;45349;-93
2021/07/24 23:58:22;;;;;;;;;1.50;1.50;;;;;;;;4643059;30;45749;-92
